Time;durP1;ratioP1;P1;durP2;ratioP2;P2;SDS_P1;SDS_P2;PMS_P1;PMS_P2;Temp;Humidity;BMP_temperature;BMP_pressure;BME280_temperature;BME280_humidity;BME280_pressure;Samples;Min_cycle;Max_cycle;Signal;HPM_P1;HPM_P2
2021/05/21 00:02:23;;;;;;;1.23;0.40;;;18.80;67.80;;;;;;5050987;28;20037;-75
2021/05/21 00:04:49;;;;;;;1.23;0.40;;;18.80;67.70;;;;;;5050435;28;20025;-75
2021/05/21 00:07:14;;;;;;;1.65;0.40;;;18.80;67.60;;;;;;5051269;28;20055;-75
2021/05/21 00:09:40;;;;;;;2.35;0.50;;;18.80;69.10;;;;;;5051617;28;20041;-76
2021/05/21 00:12:06;;;;;;;3.08;0.50;;;18.70;70.00;;;;;;5050553;28;20463;-75
2021/05/21 00:14:32;;;;;;;1.40;0.30;;;18.70;69.80;;;;;;5050862;28;20090;-76
2021/05/21 00:16:58;;;;;;;2.55;0.70;;;18.70;70.30;;;;;;5051410;28;20033;-76
2021/05/21 00:19:23;;;;;;;1.60;0.50;;;18.70;70.50;;;;;;5051604;28;20051;-75
2021/05/21 00:21:49;;;;;;;2.25;0.60;;;18.70;70.70;;;;;;5051166;28;20028;-75
2021/05/21 00:24:15;;;;;;;0.93;0.35;;;18.70;70.60;;;;;;5051299;28;20029;-74
2021/05/21 00:26:41;;;;;;;2.40;0.40;;;18.70;70.70;;;;;;5051036;28;20037;-75
2021/05/21 00:29:07;;;;;;;2.03;0.50;;;18.70;71.00;;;;;;5051085;28;20032;-78
2021/05/21 00:31:33;;;;;;;2.63;0.50;;;18.70;70.80;;;;;;5051319;28;20029;-76
2021/05/21 00:34:00;;;;;;;2.08;0.40;;;18.70;70.70;;;;;;5051610;28;20530;-76
2021/05/21 00:36:25;;;;;;;2.40;0.40;;;18.60;70.70;;;;;;5050711;28;20033;-76
2021/05/21 00:38:51;;;;;;;1.80;0.40;;;18.60;70.80;;;;;;5051316;28;20548;-74
2021/05/21 00:41:21;;;;;;;2.42;0.47;;;18.70;70.90;;;;;;5051035;28;20079;-76
2021/05/21 00:43:47;;;;;;;3.00;0.30;;;18.70;70.80;;;;;;5051732;28;20112;-75
2021/05/21 00:46:12;;;;;;;1.73;0.60;;;18.60;70.70;;;;;;5055441;28;20108;-75
2021/05/21 00:48:38;;;;;;;2.47;0.60;;;18.60;70.70;;;;;;5054295;28;20033;-76
2021/05/21 00:51:04;;;;;;;2.58;0.32;;;18.60;70.70;;;;;;5055044;28;20391;-76
2021/05/21 00:53:31;;;;;;;0.75;0.43;;;18.60;70.60;;;;;;5053963;28;20029;-76
2021/05/21 00:56:00;;;;;;;3.97;0.60;;;18.60;70.60;;;;;;5055003;28;20013;-76
2021/05/21 00:58:27;;;;;;;1.25;0.43;;;18.60;70.50;;;;;;5054675;28;20040;-75
2021/05/21 01:00:54;;;;;;;1.27;0.43;;;18.50;70.30;;;;;;5054400;28;20055;-76
2021/05/21 01:03:20;;;;;;;1.30;0.35;;;18.60;70.20;;;;;;5054397;28;20033;-76
2021/05/21 01:05:46;;;;;;;1.30;0.45;;;18.50;70.20;;;;;;5053372;28;20377;-76
2021/05/21 01:08:11;;;;;;;1.95;0.70;;;18.50;70.10;;;;;;5054902;28;20033;-75
2021/05/21 01:10:37;;;;;;;2.22;0.47;;;18.50;70.10;;;;;;5055085;28;20029;-76
2021/05/21 01:13:03;;;;;;;2.58;0.70;;;18.50;70.00;;;;;;5054709;28;20025;-76
2021/05/21 01:15:28;;;;;;;4.32;0.50;;;18.50;70.00;;;;;;5054423;28;20033;-76
2021/05/21 01:17:54;;;;;;;2.30;0.60;;;18.50;69.90;;;;;;5054001;28;20029;-76
2021/05/21 01:20:20;;;;;;;4.00;0.68;;;18.50;69.90;;;;;;5054642;28;20028;-78
2021/05/21 01:22:45;;;;;;;2.05;0.50;;;18.40;70.50;;;;;;5053521;28;20030;-78
2021/05/21 01:25:11;;;;;;;2.08;0.40;;;18.50;69.90;;;;;;5054720;28;20048;-77
2021/05/21 01:27:37;;;;;;;2.90;0.60;;;18.50;69.80;;;;;;5053992;28;20025;-77
2021/05/21 01:30:07;;;;;;;1.95;0.47;;;18.40;69.70;;;;;;5054079;28;20405;-77
2021/05/21 01:32:33;;;;;;;3.03;0.65;;;18.40;69.60;;;;;;5053854;28;20079;-77
2021/05/21 01:34:59;;;;;;;3.33;0.77;;;18.40;69.70;;;;;;5054815;28;20032;-77
2021/05/21 01:37:25;;;;;;;3.05;0.60;;;18.40;69.60;;;;;;5054044;28;20024;-77
2021/05/21 01:39:52;;;;;;;2.30;0.50;;;18.40;69.60;;;;;;5053929;28;20025;-76
2021/05/21 01:42:18;;;;;;;1.77;0.43;;;18.40;69.70;;;;;;5054155;28;20033;-76
2021/05/21 01:44:44;;;;;;;1.98;0.50;;;18.40;69.60;;;;;;5053664;28;20096;-77
2021/05/21 01:47:11;;;;;;;2.90;0.60;;;18.40;69.60;;;;;;5053905;28;20113;-77
2021/05/21 01:49:38;;;;;;;2.38;0.50;;;18.30;69.50;;;;;;5054529;28;20036;-77
2021/05/21 01:52:04;;;;;;;1.75;0.40;;;18.30;69.50;;;;;;5054252;28;20104;-77
2021/05/21 01:54:30;;;;;;;3.28;0.63;;;18.30;69.50;;;;;;5053013;28;20063;-76
2021/05/21 01:57:01;;;;;;;2.45;0.70;;;18.30;69.60;;;;;;5053239;28;20037;-77
2021/05/21 01:59:27;;;;;;;3.58;0.73;;;18.30;69.50;;;;;;5053816;28;20032;-78
2021/05/21 02:01:53;;;;;;;4.18;0.68;;;18.30;69.60;;;;;;5053574;28;20025;-78
2021/05/21 02:04:32;;;;;;;1.10;0.40;;;18.30;69.50;;;;;;5052727;28;20388;-76
2021/05/21 02:06:59;;;;;;;2.70;0.60;;;18.30;69.40;;;;;;5053695;28;20028;-78
2021/05/21 02:09:25;;;;;;;2.78;0.90;;;18.30;69.50;;;;;;5053842;28;20048;-78
2021/05/21 02:11:51;;;;;;;1.77;0.40;;;18.30;69.40;;;;;;5053399;28;20025;-78
2021/05/21 02:14:17;;;;;;;2.70;0.60;;;18.30;69.40;;;;;;5053326;28;20074;-78
2021/05/21 02:16:42;;;;;;;2.47;0.60;;;18.30;69.40;;;;;;5052971;28;20025;-77
2021/05/21 02:19:08;;;;;;;1.92;0.70;;;18.30;69.40;;;;;;5053465;28;20029;-78
2021/05/21 02:21:35;;;;;;;3.28;0.65;;;18.20;69.30;;;;;;5053747;28;20492;-78
2021/05/21 02:24:06;;;;;;;3.53;0.80;;;18.20;69.30;;;;;;5053659;28;20092;-78
2021/05/21 02:26:33;;;;;;;2.85;0.60;;;18.20;69.30;;;;;;5053026;28;20040;-78
2021/05/21 02:28:59;;;;;;;4.75;1.33;;;18.20;69.30;;;;;;5053598;28;20060;-79
2021/05/21 02:31:25;;;;;;;2.85;0.60;;;18.20;69.20;;;;;;5052811;28;20431;-78
2021/05/21 02:33:51;;;;;;;4.82;1.10;;;18.20;69.20;;;;;;5053265;28;20446;-79
2021/05/21 02:36:16;;;;;;;3.75;1.02;;;18.20;69.20;;;;;;5052619;28;20480;-79
2021/05/21 02:38:42;;;;;;;5.28;1.10;;;18.20;69.30;;;;;;5053314;28;20443;-79
2021/05/21 02:41:08;;;;;;;4.72;1.08;;;18.20;69.30;;;;;;5051293;28;20037;-78
2021/05/21 02:43:33;;;;;;;5.30;1.00;;;18.10;69.10;;;;;;5053098;28;20032;-77
2021/05/21 02:45:59;;;;;;;3.65;1.00;;;18.10;69.10;;;;;;5052879;28;20045;-78
2021/05/21 02:48:25;;;;;;;3.35;0.90;;;18.20;69.20;;;;;;5052595;28;20091;-78
2021/05/21 02:50:50;;;;;;;3.80;0.80;;;18.10;69.10;;;;;;5052960;28;20025;-77
2021/05/21 02:53:16;;;;;;;7.95;1.05;;;18.10;69.10;;;;;;5052781;28;20112;-78
2021/05/21 02:55:41;;;;;;;2.90;0.77;;;18.10;69.10;;;;;;5053077;28;20207;-76
2021/05/21 02:58:07;;;;;;;4.65;0.95;;;18.10;69.10;;;;;;5052814;28;20056;-77
2021/05/21 03:00:33;;;;;;;5.82;1.55;;;18.10;69.10;;;;;;5052496;28;20479;-78
2021/05/21 03:02:58;;;;;;;5.55;1.00;;;18.10;69.10;;;;;;5052542;28;20388;-76
2021/05/21 03:05:24;;;;;;;4.72;0.90;;;18.10;69.10;;;;;;5052754;28;20435;-77
2021/05/21 03:07:54;;;;;;;4.18;0.90;;;18.10;69.10;;;;;;5051904;28;20113;-77
2021/05/21 03:10:21;;;;;;;5.45;1.13;;;18.10;69.10;;;;;;5052694;28;20029;-76
2021/05/21 03:12:47;;;;;;;6.88;1.02;;;18.10;69.10;;;;;;5052289;28;20029;-77
2021/05/21 03:15:13;;;;;;;2.92;1.13;;;18.10;69.10;;;;;;5052549;28;20048;-76
2021/05/21 03:17:39;;;;;;;4.03;1.17;;;18.10;69.10;;;;;;5051853;28;20025;-76
2021/05/21 03:20:05;;;;;;;3.30;0.70;;;18.00;69.10;;;;;;5052380;28;20025;-77
2021/05/21 03:22:31;;;;;;;4.00;1.20;;;18.00;69.00;;;;;;5052216;28;20014;-77
2021/05/21 03:25:01;;;;;;;4.28;0.90;;;18.00;69.10;;;;;;5051341;28;20060;-77
2021/05/21 03:27:27;;;;;;;2.92;0.60;;;18.00;69.10;;;;;;5051552;28;20025;-78
2021/05/21 03:29:52;;;;;;;3.92;0.82;;;18.00;69.10;;;;;;5051959;28;20048;-76
2021/05/21 03:32:18;;;;;;;4.07;1.13;;;18.00;69.10;;;;;;5051877;28;20494;-77
2021/05/21 03:34:44;;;;;;;4.68;1.00;;;18.00;69.10;;;;;;5052476;28;20032;-77
2021/05/21 03:37:09;;;;;;;4.82;1.08;;;18.00;69.20;;;;;;5051886;28;20035;-77
2021/05/21 03:39:35;;;;;;;4.18;1.42;;;18.00;69.20;;;;;;5052112;28;20033;-77
2021/05/21 03:42:01;;;;;;;4.50;1.33;;;18.00;69.20;;;;;;5052334;28;20477;-78
2021/05/21 03:44:26;;;;;;;3.47;0.65;;;18.00;69.30;;;;;;5051973;28;20410;-78
2021/05/21 03:46:52;;;;;;;3.60;1.05;;;18.00;69.30;;;;;;5051386;28;20036;-77
2021/05/21 03:49:17;;;;;;;4.50;0.75;;;18.00;69.30;;;;;;5051634;28;20500;-77
2021/05/21 03:51:43;;;;;;;3.55;1.52;;;17.90;69.30;;;;;;5052205;28;20028;-77
2021/05/21 03:54:09;;;;;;;3.58;0.95;;;17.90;69.30;;;;;;5051192;28;20039;-77
2021/05/21 03:56:35;;;;;;;3.45;0.88;;;17.90;69.20;;;;;;5051706;28;20084;-77
2021/05/21 03:59:01;;;;;;;4.80;0.82;;;17.90;69.30;;;;;;5051935;28;20040;-77
2021/05/21 04:01:26;;;;;;;6.32;0.65;;;17.90;69.30;;;;;;5051948;28;20048;-76
2021/05/21 04:03:52;;;;;;;5.75;1.10;;;18.00;69.40;;;;;;5051210;28;20407;-76
2021/05/21 04:06:18;;;;;;;3.83;0.90;;;17.90;69.30;;;;;;5051757;28;20432;-76
2021/05/21 04:08:44;;;;;;;5.32;1.17;;;17.90;69.30;;;;;;5051109;28;20051;-76
2021/05/21 04:11:10;;;;;;;3.50;1.17;;;17.90;69.40;;;;;;5051476;28;20115;-76
2021/05/21 04:13:35;;;;;;;3.00;1.00;;;17.90;70.10;;;;;;5051783;28;20017;-77
2021/05/21 04:16:01;;;;;;;4.43;0.90;;;17.90;69.30;;;;;;5051219;28;20080;-77
2021/05/21 04:18:26;;;;;;;4.25;1.23;;;17.90;69.30;;;;;;5050816;28;20435;-77
2021/05/21 04:20:52;;;;;;;4.60;1.25;;;17.90;69.30;;;;;;5051031;28;20021;-78
2021/05/21 04:23:18;;;;;;;5.47;1.20;;;17.90;69.30;;;;;;5051746;28;20086;-76
2021/05/21 04:25:43;;;;;;;2.75;0.70;;;17.90;69.30;;;;;;5051498;28;20037;-76
2021/05/21 04:28:10;;;;;;;4.72;1.05;;;17.90;69.30;;;;;;5051322;28;20052;-77
2021/05/21 04:30:36;;;;;;;3.88;0.95;;;17.80;69.20;;;;;;5051513;28;20526;-76
2021/05/21 04:33:02;;;;;;;4.97;1.17;;;17.80;69.30;;;;;;5051401;28;20091;-76
2021/05/21 04:35:28;;;;;;;6.25;1.25;;;17.80;69.30;;;;;;5050946;28;20017;-78
2021/05/21 04:37:54;;;;;;;4.10;1.40;;;17.80;69.20;;;;;;5050844;28;20037;-77
2021/05/21 04:40:20;;;;;;;5.95;1.30;;;17.80;69.20;;;;;;5051664;28;20047;-77
2021/05/21 04:42:45;;;;;;;5.57;1.58;;;17.80;69.20;;;;;;5051421;28;20037;-77
2021/05/21 04:45:12;;;;;;;4.82;1.38;;;17.80;69.10;;;;;;5050937;28;20464;-77
2021/05/21 04:47:37;;;;;;;5.65;1.10;;;17.80;69.20;;;;;;5046361;28;20036;-77
2021/05/21 04:50:04;;;;;;;5.55;1.02;;;17.80;69.20;;;;;;5047956;28;20033;-78
2021/05/21 04:52:30;;;;;;;4.75;1.30;;;17.80;69.10;;;;;;5051200;28;20052;-77
2021/05/21 04:54:55;;;;;;;4.05;1.10;;;17.80;69.10;;;;;;5051075;28;20068;-77
2021/05/21 04:57:21;;;;;;;7.00;1.30;;;17.70;69.00;;;;;;5051579;28;20104;-78
2021/05/21 04:59:46;;;;;;;6.13;1.13;;;17.70;68.90;;;;;;5050430;28;20053;-77
2021/05/21 05:02:12;;;;;;;5.97;1.55;;;17.80;68.90;;;;;;5050053;28;20507;-78
2021/05/21 05:04:38;;;;;;;5.47;2.03;;;17.70;68.80;;;;;;5050205;28;20029;-78
2021/05/21 05:07:03;;;;;;;6.90;1.73;;;17.70;68.80;;;;;;5050878;28;20455;-77
2021/05/21 05:09:29;;;;;;;6.35;1.33;;;17.70;69.50;;;;;;5050451;28;20051;-78
2021/05/21 05:11:56;;;;;;;7.05;1.60;;;17.70;68.70;;;;;;5050686;28;20614;-77
2021/05/21 05:14:21;;;;;;;7.32;1.40;;;17.70;68.70;;;;;;5051324;28;20036;-76
2021/05/21 05:16:47;;;;;;;5.10;1.33;;;17.70;68.70;;;;;;5049525;28;20029;-77
2021/05/21 05:19:13;;;;;;;6.88;1.33;;;17.70;68.70;;;;;;5050522;28;20033;-77
2021/05/21 05:21:41;;;;;;;8.20;1.70;;;17.60;68.50;;;;;;5050996;28;20056;-76
2021/05/21 05:24:17;;;;;;;6.40;1.40;;;17.60;68.50;;;;;;5050670;28;20036;-76
2021/05/21 05:26:43;;;;;;;7.53;1.33;;;17.70;68.60;;;;;;5050497;28;20021;-77
2021/05/21 05:29:10;;;;;;;6.93;1.92;;;17.70;68.50;;;;;;5049180;28;20045;-77
2021/05/21 05:31:37;;;;;;;9.45;1.88;;;17.60;68.40;;;;;;5053054;28;20396;-76
2021/05/21 05:34:03;;;;;;;8.38;1.65;;;17.60;68.40;;;;;;5054151;28;20113;-77
2021/05/21 05:36:29;;;;;;;6.80;1.70;;;17.60;69.20;;;;;;5053881;28;20104;-77
2021/05/21 05:38:54;;;;;;;6.82;1.45;;;17.60;68.40;;;;;;5054265;28;20125;-76
2021/05/21 05:41:20;;;;;;;7.57;1.77;;;17.60;68.40;;;;;;5054592;28;20025;-77
2021/05/21 05:43:46;;;;;;;6.88;1.60;;;17.60;68.20;;;;;;5053851;28;20021;-77
2021/05/21 05:46:11;;;;;;;8.27;1.55;;;17.60;68.20;;;;;;5054225;28;20037;-77
2021/05/21 05:48:38;;;;;;;7.65;2.10;;;17.60;68.20;;;;;;5053898;28;20384;-77
2021/05/21 05:51:04;;;;;;;6.25;1.67;;;17.60;68.10;;;;;;5053964;28;20045;-77
2021/05/21 05:53:35;;;;;;;7.65;2.30;;;17.60;68.20;;;;;;5053649;28;20013;-78
2021/05/21 05:56:04;;;;;;;10.52;2.40;;;17.60;68.10;;;;;;5053871;28;20044;-79
2021/05/21 05:58:31;;;;;;;11.32;1.83;;;17.50;68.10;;;;;;5053769;28;20057;-79
2021/05/21 06:00:57;;;;;;;10.50;2.42;;;17.50;68.00;;;;;;5053504;28;20558;-79
2021/05/21 06:03:23;;;;;;;8.70;1.83;;;17.50;68.00;;;;;;5053717;28;20017;-79
2021/05/21 06:05:48;;;;;;;9.90;3.05;;;17.50;68.00;;;;;;5053115;28;20070;-80
2021/05/21 06:08:14;;;;;;;8.27;2.00;;;17.50;68.00;;;;;;5053431;28;20037;-80
2021/05/21 06:10:40;;;;;;;9.70;1.85;;;17.50;68.00;;;;;;5053356;28;20036;-80
2021/05/21 06:13:08;;;;;;;11.15;2.53;;;17.50;68.70;;;;;;5052797;28;20493;-79
2021/05/21 06:15:35;;;;;;;8.80;2.00;;;17.50;68.00;;;;;;5045891;28;20151;-78
2021/05/21 06:18:01;;;;;;;9.48;2.10;;;17.50;68.20;;;;;;5052517;28;20032;-78
2021/05/21 06:20:29;;;;;;;8.45;1.58;;;17.50;68.40;;;;;;5053461;28;20104;-77
2021/05/21 06:22:55;;;;;;;10.75;2.45;;;17.50;68.80;;;;;;5052744;28;20507;-77
2021/05/21 06:25:24;;;;;;;7.75;2.05;;;17.50;69.10;;;;;;5052972;28;20060;-80
2021/05/21 06:27:50;;;;;;;15.88;2.50;;;17.60;68.90;;;;;;5051722;28;20443;-84
2021/05/21 06:30:16;;;;;;;16.05;2.97;;;17.60;68.50;;;;;;5053145;28;20045;-80
2021/05/21 06:32:44;;;;;;;8.40;1.77;;;17.70;68.10;;;;;;5053003;28;20033;-73
2021/05/21 06:35:11;;;;;;;11.27;2.15;;;17.80;68.10;;;;;;5053245;28;20041;-76
2021/05/21 06:37:36;;;;;;;11.20;2.45;;;17.90;68.10;;;;;;5053154;28;20100;-75
2021/05/21 06:40:04;;;;;;;10.68;1.73;;;18.00;67.80;;;;;;5053168;28;20106;-74
2021/05/21 06:42:29;;;;;;;12.25;2.00;;;18.10;67.70;;;;;;5052374;28;20017;-74
2021/05/21 06:44:55;;;;;;;11.77;2.53;;;18.20;67.50;;;;;;5053462;28;20025;-75
2021/05/21 06:47:21;;;;;;;11.90;3.03;;;18.30;67.10;;;;;;5052480;28;20103;-75
2021/05/21 06:49:48;;;;;;;10.18;2.33;;;18.40;67.20;;;;;;5052983;28;20037;-75
2021/05/21 06:52:14;;;;;;;9.02;2.15;;;18.40;67.00;;;;;;5052947;28;20021;-76
2021/05/21 06:54:41;;;;;;;11.60;2.17;;;18.50;67.10;;;;;;5052078;28;20041;-77
2021/05/21 06:57:07;;;;;;;12.98;2.08;;;18.60;67.60;;;;;;5051699;28;20107;-74
2021/05/21 06:59:32;;;;;;;10.38;1.92;;;18.70;66.80;;;;;;5052306;28;20448;-73
2021/05/21 07:01:58;;;;;;;10.70;1.73;;;18.70;66.60;;;;;;5051367;28;20393;-78
2021/05/21 07:04:24;;;;;;;8.27;2.20;;;18.80;66.70;;;;;;5053859;28;20488;-78
2021/05/21 07:06:49;;;;;;;9.30;2.40;;;18.90;66.30;;;;;;5051183;28;20482;-79
2021/05/21 07:09:15;;;;;;;10.38;2.83;;;18.90;66.20;;;;;;5052713;28;20072;-78
2021/05/21 07:11:41;;;;;;;8.98;2.17;;;19.00;66.00;;;;;;5052066;28;20048;-78
2021/05/21 07:14:08;;;;;;;8.98;2.25;;;19.00;66.00;;;;;;5050830;28;20025;-78
2021/05/21 07:16:34;;;;;;;10.48;2.20;;;19.00;65.90;;;;;;5050234;28;20025;-77
2021/05/21 07:19:00;;;;;;;10.18;2.00;;;18.90;65.80;;;;;;5051735;28;20485;-78
2021/05/21 07:21:27;;;;;;;8.52;2.33;;;19.00;65.60;;;;;;5051556;28;20044;-76
2021/05/21 07:23:52;;;;;;;12.05;2.75;;;19.00;65.40;;;;;;5051533;28;20505;-78
2021/05/21 07:26:18;;;;;;;8.15;2.15;;;19.00;65.40;;;;;;5051493;28;20098;-77
2021/05/21 07:28:44;;;;;;;7.97;1.80;;;19.00;65.30;;;;;;5051999;28;20029;-76
2021/05/21 07:31:10;;;;;;;7.55;1.63;;;19.00;65.50;;;;;;5051865;28;20098;-79
2021/05/21 07:33:36;;;;;;;7.85;1.90;;;18.90;65.40;;;;;;5051136;28;20033;-71
2021/05/21 07:36:03;;;;;;;6.20;1.77;;;18.90;65.10;;;;;;5051958;28;20075;-73
2021/05/21 07:38:30;;;;;;;7.88;2.45;;;18.90;65.00;;;;;;5052257;28;20021;-77
2021/05/21 07:40:57;;;;;;;9.63;2.20;;;18.90;64.80;;;;;;5050994;28;20033;-76
2021/05/21 07:43:23;;;;;;;8.27;1.92;;;18.90;64.50;;;;;;5050406;28;20029;-76
2021/05/21 07:45:48;;;;;;;7.55;1.70;;;18.90;64.30;;;;;;5051021;28;20025;-76
2021/05/21 07:48:15;;;;;;;8.18;1.88;;;19.00;64.30;;;;;;5050830;28;20029;-74
2021/05/21 07:50:40;;;;;;;8.70;1.60;;;18.90;64.20;;;;;;5051773;28;20033;-73
2021/05/21 07:53:08;;;;;;;10.15;2.55;;;18.90;64.00;;;;;;5051255;28;20071;-75
2021/05/21 07:55:34;;;;;;;8.98;2.20;;;18.90;63.90;;;;;;5051680;28;20025;-74
2021/05/21 07:58:00;;;;;;;7.10;1.65;;;18.90;63.70;;;;;;5051992;28;20438;-75
2021/05/21 08:00:25;;;;;;;8.93;1.98;;;18.80;63.60;;;;;;5051328;28;20025;-75
2021/05/21 08:02:51;;;;;;;10.85;1.83;;;18.80;63.60;;;;;;5051339;28;20013;-76
2021/05/21 08:05:17;;;;;;;8.43;1.90;;;18.80;63.50;;;;;;5051127;28;20484;-74
2021/05/21 08:07:43;;;;;;;7.60;1.90;;;18.80;63.60;;;;;;5050554;28;20043;-76
2021/05/21 08:10:09;;;;;;;12.68;2.50;;;18.80;63.50;;;;;;5051707;28;20033;-74
2021/05/21 08:12:35;;;;;;;9.48;2.33;;;18.80;63.40;;;;;;5051469;28;20024;-76
2021/05/21 08:15:02;;;;;;;9.00;2.10;;;18.70;63.30;;;;;;5051386;28;20111;-77
2021/05/21 08:17:32;;;;;;;6.50;1.77;;;18.70;63.20;;;;;;5051598;28;20025;-74
2021/05/21 08:19:58;;;;;;;12.18;2.78;;;18.80;63.10;;;;;;5051633;28;20025;-76
2021/05/21 08:22:24;;;;;;;10.73;2.58;;;18.70;63.10;;;;;;5051612;28;20039;-75
2021/05/21 08:24:50;;;;;;;8.82;1.98;;;18.80;63.00;;;;;;5050753;28;20021;-75
2021/05/21 08:27:15;;;;;;;8.75;2.03;;;18.70;63.10;;;;;;5051526;28;20480;-75
2021/05/21 08:29:41;;;;;;;10.82;2.65;;;18.80;63.00;;;;;;5051396;28;20133;-75
2021/05/21 08:32:06;;;;;;;6.63;1.77;;;18.80;62.90;;;;;;5050754;28;20100;-76
2021/05/21 08:34:32;;;;;;;11.23;2.30;;;18.70;63.00;;;;;;5067537;28;20448;-75
2021/05/21 08:36:58;;;;;;;12.13;2.40;;;18.70;62.90;;;;;;5031602;28;20024;-75
2021/05/21 08:39:24;;;;;;;10.13;1.95;;;18.70;62.90;;;;;;5031537;28;20789;-74
2021/05/21 08:41:53;;;;;;;8.07;2.13;;;18.70;62.80;;;;;;5032796;28;20021;-73
2021/05/21 08:44:19;;;;;;;7.60;1.73;;;18.70;62.70;;;;;;5050554;28;20378;-76
2021/05/21 08:46:44;;;;;;;10.60;2.33;;;18.70;63.10;;;;;;5050877;28;20100;-75
2021/05/21 08:49:10;;;;;;;7.93;2.03;;;18.70;62.70;;;;;;5049919;28;20485;-76
2021/05/21 08:51:36;;;;;;;10.48;2.28;;;18.60;62.70;;;;;;5051226;28;20025;-76
2021/05/21 08:54:02;;;;;;;7.70;1.83;;;18.60;62.90;;;;;;5051639;28;20025;-77
2021/05/21 08:56:28;;;;;;;12.73;2.42;;;18.50;62.80;;;;;;5050337;28;20026;-76
2021/05/21 08:58:57;;;;;;;6.43;1.50;;;18.50;62.90;;;;;;5051185;28;20412;-76
2021/05/21 09:01:26;;;;;;;5.82;1.85;;;18.50;63.00;;;;;;5050968;28;20033;-73
2021/05/21 09:04:01;;;;;;;7.30;1.83;;;18.40;63.00;;;;;;5050882;28;20098;-73
2021/05/21 09:06:28;;;;;;;6.88;1.90;;;18.40;63.80;;;;;;5054297;28;20056;-76
2021/05/21 09:08:59;;;;;;;5.57;1.80;;;18.40;63.20;;;;;;5054917;28;20036;-77
2021/05/21 09:11:43;;;;;;;7.20;1.85;;;18.30;63.10;;;;;;5055167;28;20021;-73
2021/05/21 09:14:20;;;;;;;7.07;1.55;;;18.30;63.10;;;;;;5054612;28;20036;-73
2021/05/21 09:16:48;;;;;;;6.47;2.00;;;18.30;63.20;;;;;;5054811;28;20107;-77
2021/05/21 09:19:21;;;;;;;9.35;2.40;;;18.30;63.20;;;;;;5054710;28;20389;-75
2021/05/21 09:22:08;;;;;;;10.65;2.13;;;18.30;63.90;;;;;;5054774;28;20047;-75
2021/05/21 09:24:45;;;;;;;6.82;1.58;;;18.40;62.90;;;;;;5054328;28;20063;-74
2021/05/21 09:27:12;;;;;;;7.25;1.90;;;18.40;62.70;;;;;;5053770;28;20064;-74
2021/05/21 09:29:47;;;;;;;10.82;2.05;;;18.40;62.60;;;;;;5054499;28;20058;-76
2021/05/21 09:32:33;;;;;;;6.63;1.70;;;18.40;62.60;;;;;;5054729;28;20025;-76
2021/05/21 09:35:17;;;;;;;9.85;2.40;;;18.40;62.60;;;;;;5054493;28;20025;-77
2021/05/21 09:37:52;;;;;;;7.85;2.40;;;18.40;62.40;;;;;;5054637;28;20033;-77
2021/05/21 09:40:29;;;;;;;7.35;2.05;;;18.50;62.40;;;;;;5054469;28;20017;-77
2021/05/21 09:43:03;;;;;;;9.30;2.45;;;18.50;62.30;;;;;;5053848;28;20488;-77
2021/05/21 09:45:34;;;;;;;6.22;1.90;;;18.50;62.10;;;;;;5054304;28;20116;-77
2021/05/21 09:48:09;;;;;;;6.38;2.10;;;18.50;62.10;;;;;;5053399;28;20491;-78
2021/05/21 09:50:44;;;;;;;8.65;2.42;;;18.50;62.00;;;;;;5054195;28;20119;-76
2021/05/21 09:53:15;;;;;;;6.60;2.05;;;18.50;61.90;;;;;;5054444;28;20532;-76
2021/05/21 09:55:45;;;;;;;14.32;2.20;;;18.50;61.80;;;;;;5054243;28;20087;-76
2021/05/21 09:58:31;;;;;;;7.90;2.00;;;18.50;61.80;;;;;;5054146;28;20067;-77
2021/05/21 10:01:09;;;;;;;6.88;1.95;;;18.50;61.70;;;;;;5052497;28;20021;-76
2021/05/21 10:03:36;;;;;;;5.35;2.05;;;18.50;61.70;;;;;;5054384;28;20104;-76
2021/05/21 10:06:03;;;;;;;8.45;1.70;;;18.50;61.60;;;;;;5053371;28;20059;-77
2021/05/21 10:08:32;;;;;;;7.78;1.88;;;18.50;61.60;;;;;;5053130;28;20041;-77
2021/05/21 10:10:58;;;;;;;8.98;2.13;;;18.50;61.50;;;;;;5053705;28;20049;-76
2021/05/21 10:13:25;;;;;;;11.10;2.17;;;18.50;61.40;;;;;;5053518;28;20029;-78
2021/05/21 10:15:51;;;;;;;9.88;2.10;;;18.40;61.40;;;;;;5052133;28;20032;-77
2021/05/21 10:18:17;;;;;;;7.78;1.70;;;18.40;61.50;;;;;;5052528;28;20028;-77
2021/05/21 10:20:44;;;;;;;7.68;1.67;;;18.40;61.50;;;;;;5051714;28;20029;-77
2021/05/21 10:23:16;;;;;;;4.90;1.52;;;18.40;61.40;;;;;;5051555;28;20061;-78
2021/05/21 10:25:42;;;;;;;13.23;2.30;;;18.40;61.30;;;;;;5052600;28;20029;-77
2021/05/21 10:28:09;;;;;;;9.90;2.03;;;18.40;61.50;;;;;;5053427;28;20545;-78
2021/05/21 10:30:35;;;;;;;8.15;2.22;;;18.40;61.60;;;;;;5053316;28;20515;-79
2021/05/21 10:33:20;;;;;;;11.63;2.00;;;18.40;61.60;;;;;;5046489;28;20025;-79
2021/05/21 10:35:47;;;;;;;7.43;2.10;;;18.60;61.50;;;;;;5042356;28;20392;-78
2021/05/21 10:38:21;;;;;;;7.22;1.70;;;18.60;62.10;;;;;;5051387;28;20028;-77
2021/05/21 10:41:16;;;;;;;6.60;1.52;;;18.70;61.50;;;;;;5050541;28;20029;-77
2021/05/21 10:43:49;;;;;;;8.70;1.83;;;18.70;61.50;;;;;;5051651;28;20029;-76
2021/05/21 10:46:20;;;;;;;8.55;1.60;;;18.70;61.70;;;;;;5051607;28;20029;-78
2021/05/21 10:48:58;;;;;;;7.75;1.73;;;18.70;61.70;;;;;;5051851;28;20365;-79
2021/05/21 10:51:47;;;;;;;7.03;1.60;;;18.80;61.60;;;;;;5052397;28;20039;-78
2021/05/21 10:54:34;;;;;;;9.05;2.45;;;19.00;61.80;;;;;;5052304;28;20024;-78
2021/05/21 10:57:09;;;;;;;4.60;1.73;;;19.30;61.80;;;;;;5052402;28;20071;-76
2021/05/21 10:59:54;;;;;;;9.65;1.83;;;19.50;61.90;;;;;;5049427;28;20029;-75
2021/05/21 11:02:52;;;;;;;8.90;2.08;;;19.70;62.10;;;;;;5051784;28;20443;-79
2021/05/21 11:05:32;;;;;;;7.05;1.63;;;19.90;62.00;;;;;;5051481;28;20033;-75
2021/05/21 11:08:01;;;;;;;6.78;1.52;;;20.00;61.50;;;;;;5051817;28;20029;-78
2021/05/21 11:10:31;;;;;;;6.60;1.30;;;20.10;61.40;;;;;;5051864;28;20127;-79
2021/05/21 11:13:05;;;;;;;8.82;1.67;;;20.10;61.30;;;;;;5051859;28;20045;-77
2021/05/21 11:15:33;;;;;;;6.72;1.98;;;20.10;61.20;;;;;;5051859;28;20032;-76
2021/05/21 11:18:20;;;;;;;4.90;1.33;;;20.20;61.10;;;;;;5051685;28;20025;-78
2021/05/21 11:20:54;;;;;;;7.50;1.38;;;20.10;61.10;;;;;;5051710;28;20484;-79
2021/05/21 11:23:29;;;;;;;5.22;1.30;;;20.20;61.00;;;;;;5051440;28;20025;-77
2021/05/21 11:26:17;;;;;;;4.53;1.63;;;20.20;60.70;;;;;;5051258;28;20033;-78
2021/05/21 11:28:48;;;;;;;6.50;1.40;;;20.30;60.40;;;;;;5048699;28;20048;-77
2021/05/21 11:31:22;;;;;;;7.72;1.60;;;20.30;59.80;;;;;;5048651;28;20037;-78
2021/05/21 11:33:50;;;;;;;8.02;1.63;;;20.20;59.20;;;;;;5047681;28;20029;-76
2021/05/21 11:36:16;;;;;;;6.40;1.55;;;20.10;59.30;;;;;;5049805;28;20039;-76
2021/05/21 11:38:42;;;;;;;6.95;1.50;;;20.10;59.60;;;;;;5050686;28;20025;-77
2021/05/21 11:41:11;;;;;;;9.45;1.50;;;20.10;59.30;;;;;;5052098;28;20021;-79
2021/05/21 11:43:41;;;;;;;9.02;1.52;;;20.10;59.20;;;;;;5050619;28;20033;-77
2021/05/21 11:46:13;;;;;;;5.40;1.80;;;20.10;59.20;;;;;;5046484;28;20036;-79
2021/05/21 11:48:41;;;;;;;8.60;1.75;;;20.10;59.10;;;;;;5051198;28;20036;-78
2021/05/21 11:51:15;;;;;;;8.48;1.40;;;20.10;59.10;;;;;;5050967;28;20104;-75
2021/05/21 11:53:55;;;;;;;6.50;1.52;;;20.10;59.10;;;;;;5049844;28;20107;-77
2021/05/21 11:56:35;;;;;;;8.20;1.50;;;20.00;59.10;;;;;;5049245;28;20024;-76
2021/05/21 11:59:18;;;;;;;5.90;1.20;;;20.00;59.10;;;;;;5050164;28;20048;-76
2021/05/21 12:01:54;;;;;;;7.75;1.70;;;19.90;59.00;;;;;;5049685;28;20112;-76
2021/05/21 12:04:20;;;;;;;;;;;20.00;58.80;;;;;;5050879;28;20465;-76
2021/05/21 12:06:51;;;;;;;5.55;1.27;;;20.00;58.70;;;;;;5051743;28;19924;-76
2021/05/21 12:09:19;;;;;;;5.95;1.77;;;19.90;58.70;;;;;;5051858;28;20045;-77
2021/05/21 12:11:49;;;;;;;5.60;1.33;;;19.90;58.50;;;;;;5051795;28;20028;-76
2021/05/21 12:14:17;;;;;;;6.65;1.63;;;19.80;58.60;;;;;;5051597;28;20063;-76
2021/05/21 12:16:45;;;;;;;9.13;1.73;;;19.90;58.70;;;;;;5051844;28;20498;-76
2021/05/21 12:19:12;;;;;;;8.10;1.25;;;19.80;58.20;;;;;;5049419;28;20047;-76
2021/05/21 12:21:41;;;;;;;5.75;1.60;;;19.90;58.50;;;;;;5051706;28;20025;-76
2021/05/21 12:24:08;;;;;;;8.00;1.80;;;19.90;58.40;;;;;;5051381;28;20021;-76
2021/05/21 12:26:36;;;;;;;9.65;1.67;;;19.90;58.30;;;;;;5051152;28;20024;-76
2021/05/21 12:29:07;;;;;;;7.43;1.20;;;19.90;58.30;;;;;;5051119;28;20114;-76
2021/05/21 12:31:52;;;;;;;5.95;1.30;;;19.70;58.10;;;;;;5051578;28;20025;-77
2021/05/21 12:34:20;;;;;;;7.78;1.65;;;19.60;58.10;;;;;;5051582;28;20587;-76
2021/05/21 12:36:59;;;;;;;7.82;2.00;;;19.60;58.40;;;;;;5051520;28;20027;-73
2021/05/21 12:39:43;;;;;;;4.80;1.25;;;19.60;58.20;;;;;;5052725;28;20025;-75
2021/05/21 12:42:13;;;;;;;7.75;1.50;;;19.60;57.80;;;;;;5055236;28;20024;-75
2021/05/21 12:44:43;;;;;;;7.07;1.40;;;19.60;58.00;;;;;;5055503;28;20488;-76
2021/05/21 12:47:09;;;;;;;3.83;0.98;;;19.60;58.00;;;;;;5055362;28;20017;-75
2021/05/21 12:49:35;;;;;;;7.57;1.70;;;19.50;57.30;;;;;;5054920;28;20047;-76
2021/05/21 12:52:06;;;;;;;4.72;1.50;;;19.50;57.30;;;;;;5054871;28;20079;-76